sensor_id;sensor_type;location;lat;lon;timestamp;P1;durP1;ratioP1;P2;durP2;ratioP2
76939;SDS011;65885;55.848;35.916;2023-04-01T00:00:46;3.80;;;2.20;;
76939;SDS011;65885;55.848;35.916;2023-04-01T00:03:14;3.65;;;2.15;;
76939;SDS011;65885;55.848;35.916;2023-04-01T00:05:41;3.50;;;2.05;;
76939;SDS011;65885;55.848;35.916;2023-04-01T00:08:10;3.30;;;1.90;;
76939;SDS011;65885;55.848;35.916;2023-04-01T00:10:38;3.10;;;1.75;;
76939;SDS011;65885;55.848;35.916;2023-04-01T00:13:05;3.40;;;2.50;;
76939;SDS011;65885;55.848;35.916;2023-04-01T00:15:33;4.38;;;1.95;;
76939;SDS011;65885;55.848;35.916;2023-04-01T00:18:01;2.70;;;2.00;;
76939;SDS011;65885;55.848;35.916;2023-04-01T00:20:29;4.15;;;2.33;;
76939;SDS011;65885;55.848;35.916;2023-04-01T00:22:57;4.32;;;1.90;;
76939;SDS011;65885;55.848;35.916;2023-04-01T00:25:26;3.30;;;1.90;;
76939;SDS011;65885;55.848;35.916;2023-04-01T00:27:53;3.92;;;1.90;;
76939;SDS011;65885;55.848;35.916;2023-04-01T00:30:20;3.05;;;1.98;;
76939;SDS011;65885;55.848;35.916;2023-04-01T00:32:51;3.13;;;2.05;;
76939;SDS011;65885;55.848;35.916;2023-04-01T00:35:18;4.18;;;2.53;;
76939;SDS011;65885;55.848;35.916;2023-04-01T00:37:46;3.85;;;1.90;;
76939;SDS011;65885;55.848;35.916;2023-04-01T00:40:21;3.45;;;1.92;;
76939;SDS011;65885;55.848;35.916;2023-04-01T00:42:52;3.15;;;1.65;;
76939;SDS011;65885;55.848;35.916;2023-04-01T00:45:28;3.40;;;1.90;;
76939;SDS011;65885;55.848;35.916;2023-04-01T00:50:26;2.53;;;1.52;;
76939;SDS011;65885;55.848;35.916;2023-04-01T00:52:55;3.55;;;1.98;;
76939;SDS011;65885;55.848;35.916;2023-04-01T00:55:23;2.42;;;1.65;;
76939;SDS011;65885;55.848;35.916;2023-04-01T00:57:54;4.65;;;1.70;;
76939;SDS011;65885;55.848;35.916;2023-04-01T01:00:24;4.75;;;2.63;;
76939;SDS011;65885;55.848;35.916;2023-04-01T01:02:51;3.30;;;2.08;;
76939;SDS011;65885;55.848;35.916;2023-04-01T01:05:20;3.83;;;2.10;;
76939;SDS011;65885;55.848;35.916;2023-04-01T01:07:56;3.80;;;1.80;;
76939;SDS011;65885;55.848;35.916;2023-04-01T01:10:29;2.47;;;1.65;;
76939;SDS011;65885;55.848;35.916;2023-04-01T01:13:03;3.67;;;2.40;;
76939;SDS011;65885;55.848;35.916;2023-04-01T01:15:40;3.97;;;2.13;;
76939;SDS011;65885;55.848;35.916;2023-04-01T01:18:15;3.88;;;2.30;;
76939;SDS011;65885;55.848;35.916;2023-04-01T01:20:58;2.85;;;1.83;;
76939;SDS011;65885;55.848;35.916;2023-04-01T01:23:49;3.30;;;2.00;;
76939;SDS011;65885;55.848;35.916;2023-04-01T01:26:44;2.63;;;1.73;;
76939;SDS011;65885;55.848;35.916;2023-04-01T01:29:42;3.35;;;2.03;;
76939;SDS011;65885;55.848;35.916;2023-04-01T01:32:28;4.25;;;2.20;;
76939;SDS011;65885;55.848;35.916;2023-04-01T01:35:18;5.15;;;2.92;;
76939;SDS011;65885;55.848;35.916;2023-04-01T01:37:49;3.75;;;2.38;;
76939;SDS011;65885;55.848;35.916;2023-04-01T01:40:19;5.25;;;2.53;;
76939;SDS011;65885;55.848;35.916;2023-04-01T01:42:49;6.05;;;2.88;;
76939;SDS011;65885;55.848;35.916;2023-04-01T01:45:19;4.32;;;2.42;;
76939;SDS011;65885;55.848;35.916;2023-04-01T01:47:49;3.92;;;2.70;;
76939;SDS011;65885;55.848;35.916;2023-04-01T01:50:19;4.10;;;2.83;;
76939;SDS011;65885;55.848;35.916;2023-04-01T01:52:49;3.72;;;2.42;;
76939;SDS011;65885;55.848;35.916;2023-04-01T01:55:24;4.38;;;2.58;;
76939;SDS011;65885;55.848;35.916;2023-04-01T01:57:54;5.03;;;2.95;;
76939;SDS011;65885;55.848;35.916;2023-04-01T02:00:25;4.00;;;2.45;;
76939;SDS011;65885;55.848;35.916;2023-04-01T02:02:54;4.68;;;2.50;;
76939;SDS011;65885;55.848;35.916;2023-04-01T02:05:25;3.90;;;2.80;;
76939;SDS011;65885;55.848;35.916;2023-04-01T02:07:57;4.82;;;3.00;;
76939;SDS011;65885;55.848;35.916;2023-04-01T02:10:31;4.43;;;3.13;;
76939;SDS011;65885;55.848;35.916;2023-04-01T02:13:04;3.95;;;2.83;;
76939;SDS011;65885;55.848;35.916;2023-04-01T02:15:37;4.90;;;2.58;;
76939;SDS011;65885;55.848;35.916;2023-04-01T02:18:09;3.80;;;2.50;;
76939;SDS011;65885;55.848;35.916;2023-04-01T02:20:40;4.68;;;2.70;;
76939;SDS011;65885;55.848;35.916;2023-04-01T02:23:08;5.30;;;2.40;;
76939;SDS011;65885;55.848;35.916;2023-04-01T02:25:37;4.20;;;2.25;;
76939;SDS011;65885;55.848;35.916;2023-04-01T02:28:06;4.32;;;2.50;;
76939;SDS011;65885;55.848;35.916;2023-04-01T02:30:36;4.28;;;1.98;;
76939;SDS011;65885;55.848;35.916;2023-04-01T02:33:06;2.90;;;1.92;;
76939;SDS011;65885;55.848;35.916;2023-04-01T02:35:34;3.58;;;2.33;;
76939;SDS011;65885;55.848;35.916;2023-04-01T02:38:04;4.13;;;2.15;;
76939;SDS011;65885;55.848;35.916;2023-04-01T02:40:41;3.08;;;1.83;;
76939;SDS011;65885;55.848;35.916;2023-04-01T02:43:10;4.72;;;2.38;;
76939;SDS011;65885;55.848;35.916;2023-04-01T02:45:38;4.32;;;1.92;;
76939;SDS011;65885;55.848;35.916;2023-04-01T02:48:05;3.72;;;2.35;;
76939;SDS011;65885;55.848;35.916;2023-04-01T02:50:33;4.07;;;2.40;;
76939;SDS011;65885;55.848;35.916;2023-04-01T02:53:01;4.53;;;2.40;;
76939;SDS011;65885;55.848;35.916;2023-04-01T02:55:33;4.05;;;2.22;;
76939;SDS011;65885;55.848;35.916;2023-04-01T02:58:00;4.60;;;2.65;;
76939;SDS011;65885;55.848;35.916;2023-04-01T03:00:28;4.53;;;1.83;;
76939;SDS011;65885;55.848;35.916;2023-04-01T03:02:56;3.75;;;2.25;;
76939;SDS011;65885;55.848;35.916;2023-04-01T03:05:24;3.10;;;2.05;;
76939;SDS011;65885;55.848;35.916;2023-04-01T03:07:51;3.55;;;2.25;;
76939;SDS011;65885;55.848;35.916;2023-04-01T03:10:18;3.30;;;2.35;;
76939;SDS011;65885;55.848;35.916;2023-04-01T03:12:48;3.40;;;1.90;;
76939;SDS011;65885;55.848;35.916;2023-04-01T03:15:15;3.33;;;1.90;;
76939;SDS011;65885;55.848;35.916;2023-04-01T03:17:43;3.05;;;2.00;;
76939;SDS011;65885;55.848;35.916;2023-04-01T03:20:12;3.53;;;1.70;;
76939;SDS011;65885;55.848;35.916;2023-04-01T03:22:40;2.72;;;1.88;;
76939;SDS011;65885;55.848;35.916;2023-04-01T03:25:08;3.42;;;1.73;;
76939;SDS011;65885;55.848;35.916;2023-04-01T03:27:37;3.15;;;2.08;;
76939;SDS011;65885;55.848;35.916;2023-04-01T03:30:06;3.35;;;1.45;;
76939;SDS011;65885;55.848;35.916;2023-04-01T03:32:35;3.22;;;1.83;;
76939;SDS011;65885;55.848;35.916;2023-04-01T03:35:03;3.53;;;2.20;;
76939;SDS011;65885;55.848;35.916;2023-04-01T03:37:31;2.95;;;1.77;;
76939;SDS011;65885;55.848;35.916;2023-04-01T03:39:59;2.42;;;1.67;;
76939;SDS011;65885;55.848;35.916;2023-04-01T03:42:26;2.97;;;1.73;;
76939;SDS011;65885;55.848;35.916;2023-04-01T03:44:54;2.22;;;1.58;;
76939;SDS011;65885;55.848;35.916;2023-04-01T03:47:23;2.53;;;1.50;;
76939;SDS011;65885;55.848;35.916;2023-04-01T03:49:50;3.75;;;2.03;;
76939;SDS011;65885;55.848;35.916;2023-04-01T03:52:18;3.15;;;1.83;;
76939;SDS011;65885;55.848;35.916;2023-04-01T03:54:45;2.53;;;1.60;;
76939;SDS011;65885;55.848;35.916;2023-04-01T03:57:13;3.00;;;1.83;;
76939;SDS011;65885;55.848;35.916;2023-04-01T03:59:40;3.55;;;1.80;;
76939;SDS011;65885;55.848;35.916;2023-04-01T04:02:08;1.95;;;1.77;;
76939;SDS011;65885;55.848;35.916;2023-04-01T04:04:37;2.70;;;1.73;;
76939;SDS011;65885;55.848;35.916;2023-04-01T04:07:05;2.75;;;1.60;;
76939;SDS011;65885;55.848;35.916;2023-04-01T04:09:32;2.88;;;1.67;;
76939;SDS011;65885;55.848;35.916;2023-04-01T04:12:00;2.97;;;2.08;;
76939;SDS011;65885;55.848;35.916;2023-04-01T04:14:27;3.58;;;1.92;;
76939;SDS011;65885;55.848;35.916;2023-04-01T04:16:54;2.35;;;1.52;;
76939;SDS011;65885;55.848;35.916;2023-04-01T04:19:22;3.88;;;1.98;;
76939;SDS011;65885;55.848;35.916;2023-04-01T04:21:51;3.38;;;1.80;;
76939;SDS011;65885;55.848;35.916;2023-04-01T04:24:18;3.22;;;1.90;;
76939;SDS011;65885;55.848;35.916;2023-04-01T04:26:45;3.60;;;1.88;;
76939;SDS011;65885;55.848;35.916;2023-04-01T04:29:12;2.72;;;1.92;;
76939;SDS011;65885;55.848;35.916;2023-04-01T04:31:40;3.15;;;1.95;;
76939;SDS011;65885;55.848;35.916;2023-04-01T04:34:08;5.40;;;1.92;;
76939;SDS011;65885;55.848;35.916;2023-04-01T04:36:36;3.25;;;2.03;;
76939;SDS011;65885;55.848;35.916;2023-04-01T04:39:05;2.70;;;1.80;;
76939;SDS011;65885;55.848;35.916;2023-04-01T04:41:32;4.05;;;2.42;;
76939;SDS011;65885;55.848;35.916;2023-04-01T04:43:59;3.45;;;2.20;;
76939;SDS011;65885;55.848;35.916;2023-04-01T04:46:27;5.05;;;2.90;;
76939;SDS011;65885;55.848;35.916;2023-04-01T04:48:54;5.53;;;2.50;;
76939;SDS011;65885;55.848;35.916;2023-04-01T04:51:21;5.93;;;2.83;;
76939;SDS011;65885;55.848;35.916;2023-04-01T04:53:50;4.30;;;2.25;;
76939;SDS011;65885;55.848;35.916;2023-04-01T04:56:19;4.03;;;2.65;;
76939;SDS011;65885;55.848;35.916;2023-04-01T04:58:47;3.75;;;2.53;;
76939;SDS011;65885;55.848;35.916;2023-04-01T05:01:15;3.60;;;2.50;;
76939;SDS011;65885;55.848;35.916;2023-04-01T05:03:43;4.45;;;2.30;;
76939;SDS011;65885;55.848;35.916;2023-04-01T05:06:12;4.70;;;2.35;;
76939;SDS011;65885;55.848;35.916;2023-04-01T05:08:41;4.68;;;2.33;;
76939;SDS011;65885;55.848;35.916;2023-04-01T05:11:10;3.88;;;2.30;;
76939;SDS011;65885;55.848;35.916;2023-04-01T05:13:41;2.85;;;2.10;;
76939;SDS011;65885;55.848;35.916;2023-04-01T05:16:09;5.97;;;2.67;;
76939;SDS011;65885;55.848;35.916;2023-04-01T05:18:38;2.25;;;1.90;;
76939;SDS011;65885;55.848;35.916;2023-04-01T05:21:06;4.88;;;2.00;;
76939;SDS011;65885;55.848;35.916;2023-04-01T05:23:34;4.35;;;2.33;;
76939;SDS011;65885;55.848;35.916;2023-04-01T05:26:02;4.03;;;2.30;;
76939;SDS011;65885;55.848;35.916;2023-04-01T05:28:31;4.22;;;2.38;;
76939;SDS011;65885;55.848;35.916;2023-04-01T05:31:00;4.82;;;2.47;;
76939;SDS011;65885;55.848;35.916;2023-04-01T05:33:29;3.78;;;2.50;;
76939;SDS011;65885;55.848;35.916;2023-04-01T05:36:05;4.40;;;2.83;;
76939;SDS011;65885;55.848;35.916;2023-04-01T05:38:33;4.28;;;3.05;;
76939;SDS011;65885;55.848;35.916;2023-04-01T05:41:00;3.67;;;2.53;;
76939;SDS011;65885;55.848;35.916;2023-04-01T05:43:29;4.88;;;2.63;;
76939;SDS011;65885;55.848;35.916;2023-04-01T05:45:57;4.22;;;2.63;;
76939;SDS011;65885;55.848;35.916;2023-04-01T05:48:27;3.97;;;2.45;;
76939;SDS011;65885;55.848;35.916;2023-04-01T05:50:54;3.92;;;2.40;;
76939;SDS011;65885;55.848;35.916;2023-04-01T05:53:22;4.95;;;2.58;;
76939;SDS011;65885;55.848;35.916;2023-04-01T05:55:50;4.20;;;2.55;;
76939;SDS011;65885;55.848;35.916;2023-04-01T05:58:17;3.92;;;2.30;;
76939;SDS011;65885;55.848;35.916;2023-04-01T06:00:45;3.78;;;2.47;;
76939;SDS011;65885;55.848;35.916;2023-04-01T06:03:13;3.85;;;2.45;;
76939;SDS011;65885;55.848;35.916;2023-04-01T06:05:42;4.18;;;2.40;;
76939;SDS011;65885;55.848;35.916;2023-04-01T06:08:11;3.20;;;2.15;;
76939;SDS011;65885;55.848;35.916;2023-04-01T06:10:44;3.58;;;2.20;;
76939;SDS011;65885;55.848;35.916;2023-04-01T06:13:27;3.40;;;2.17;;
76939;SDS011;65885;55.848;35.916;2023-04-01T06:16:10;3.70;;;2.15;;
76939;SDS011;65885;55.848;35.916;2023-04-01T06:18:52;3.92;;;2.50;;
76939;SDS011;65885;55.848;35.916;2023-04-01T06:21:45;3.20;;;2.05;;
76939;SDS011;65885;55.848;35.916;2023-04-01T06:24:31;5.63;;;2.30;;
76939;SDS011;65885;55.848;35.916;2023-04-01T06:27:17;3.30;;;2.03;;
76939;SDS011;65885;55.848;35.916;2023-04-01T06:29:54;4.03;;;2.63;;
76939;SDS011;65885;55.848;35.916;2023-04-01T06:32:46;2.85;;;2.28;;
76939;SDS011;65885;55.848;35.916;2023-04-01T06:35:43;3.28;;;2.10;;
76939;SDS011;65885;55.848;35.916;2023-04-01T06:44:35;5.00;;;2.60;;
76939;SDS011;65885;55.848;35.916;2023-04-01T06:47:14;7.70;;;3.10;;
76939;SDS011;65885;55.848;35.916;2023-04-01T06:49:56;7.38;;;3.50;;
76939;SDS011;65885;55.848;35.916;2023-04-01T06:52:35;7.15;;;3.28;;
76939;SDS011;65885;55.848;35.916;2023-04-01T06:55:18;6.78;;;3.00;;
76939;SDS011;65885;55.848;35.916;2023-04-01T06:57:55;5.03;;;2.53;;
76939;SDS011;65885;55.848;35.916;2023-04-01T07:00:27;6.07;;;2.92;;
76939;SDS011;65885;55.848;35.916;2023-04-01T07:03:01;4.15;;;2.38;;
76939;SDS011;65885;55.848;35.916;2023-04-01T07:05:39;5.32;;;2.30;;
76939;SDS011;65885;55.848;35.916;2023-04-01T07:08:10;3.95;;;2.17;;
76939;SDS011;65885;55.848;35.916;2023-04-01T07:10:43;3.63;;;2.05;;
76939;SDS011;65885;55.848;35.916;2023-04-01T07:13:18;2.20;;;1.48;;
76939;SDS011;65885;55.848;35.916;2023-04-01T07:15:54;2.33;;;1.60;;
76939;SDS011;65885;55.848;35.916;2023-04-01T07:20:57;3.13;;;1.73;;
76939;SDS011;65885;55.848;35.916;2023-04-01T07:23:26;3.38;;;1.85;;
76939;SDS011;65885;55.848;35.916;2023-04-01T07:25:59;3.25;;;1.63;;
76939;SDS011;65885;55.848;35.916;2023-04-01T07:28:32;3.13;;;2.08;;
76939;SDS011;65885;55.848;35.916;2023-04-01T07:31:03;2.33;;;1.50;;
76939;SDS011;65885;55.848;35.916;2023-04-01T07:33:42;2.30;;;1.50;;
76939;SDS011;65885;55.848;35.916;2023-04-01T07:36:19;1.52;;;1.30;;
76939;SDS011;65885;55.848;35.916;2023-04-01T07:38:55;1.83;;;1.42;;
76939;SDS011;65885;55.848;35.916;2023-04-01T07:41:32;2.58;;;1.63;;
76939;SDS011;65885;55.848;35.916;2023-04-01T07:44:15;2.08;;;1.27;;
76939;SDS011;65885;55.848;35.916;2023-04-01T07:46:54;1.85;;;1.25;;
76939;SDS011;65885;55.848;35.916;2023-04-01T07:49:30;2.90;;;1.77;;
76939;SDS011;65885;55.848;35.916;2023-04-01T07:52:08;1.95;;;1.45;;
76939;SDS011;65885;55.848;35.916;2023-04-01T07:54:45;2.67;;;1.30;;
76939;SDS011;65885;55.848;35.916;2023-04-01T07:57:17;2.83;;;1.10;;
76939;SDS011;65885;55.848;35.916;2023-04-01T07:59:53;2.75;;;1.52;;
76939;SDS011;65885;55.848;35.916;2023-04-01T08:05:01;1.40;;;1.00;;
76939;SDS011;65885;55.848;35.916;2023-04-01T08:07:35;1.63;;;1.20;;
76939;SDS011;65885;55.848;35.916;2023-04-01T08:10:11;1.83;;;1.42;;
76939;SDS011;65885;55.848;35.916;2023-04-01T08:12:47;1.88;;;1.30;;
76939;SDS011;65885;55.848;35.916;2023-04-01T08:15:26;1.42;;;1.15;;
76939;SDS011;65885;55.848;35.916;2023-04-01T08:20:47;2.50;;;1.50;;
76939;SDS011;65885;55.848;35.916;2023-04-01T08:25:50;2.22;;;1.50;;
76939;SDS011;65885;55.848;35.916;2023-04-01T08:28:24;2.33;;;1.52;;
76939;SDS011;65885;55.848;35.916;2023-04-01T08:30:58;1.52;;;1.20;;
76939;SDS011;65885;55.848;35.916;2023-04-01T08:33:30;2.08;;;1.40;;
76939;SDS011;65885;55.848;35.916;2023-04-01T08:35:59;1.42;;;1.25;;
76939;SDS011;65885;55.848;35.916;2023-04-01T08:38:33;1.52;;;1.35;;
76939;SDS011;65885;55.848;35.916;2023-04-01T08:41:12;2.00;;;1.40;;
76939;SDS011;65885;55.848;35.916;2023-04-01T08:44:07;1.95;;;1.58;;
76939;SDS011;65885;55.848;35.916;2023-04-01T08:47:07;1.95;;;1.35;;
76939;SDS011;65885;55.848;35.916;2023-04-01T08:53:18;2.17;;;1.60;;
76939;SDS011;65885;55.848;35.916;2023-04-01T08:56:00;2.15;;;1.38;;
76939;SDS011;65885;55.848;35.916;2023-04-01T08:58:42;2.08;;;1.42;;
76939;SDS011;65885;55.848;35.916;2023-04-01T09:01:33;3.33;;;1.65;;
76939;SDS011;65885;55.848;35.916;2023-04-01T09:04:17;2.22;;;1.33;;
76939;SDS011;65885;55.848;35.916;2023-04-01T09:07:04;2.03;;;1.27;;
76939;SDS011;65885;55.848;35.916;2023-04-01T09:09:47;1.80;;;1.52;;
76939;SDS011;65885;55.848;35.916;2023-04-01T09:12:44;2.22;;;1.75;;
76939;SDS011;65885;55.848;35.916;2023-04-01T09:15:37;2.10;;;1.52;;
76939;SDS011;65885;55.848;35.916;2023-04-01T09:21:28;1.98;;;1.55;;
76939;SDS011;65885;55.848;35.916;2023-04-01T09:27:08;2.05;;;1.60;;
76939;SDS011;65885;55.848;35.916;2023-04-01T09:29:53;1.75;;;1.50;;
76939;SDS011;65885;55.848;35.916;2023-04-01T09:36:12;1.42;;;1.33;;
76939;SDS011;65885;55.848;35.916;2023-04-01T09:38:55;1.48;;;1.20;;
76939;SDS011;65885;55.848;35.916;2023-04-01T09:41:28;1.25;;;1.10;;
76939;SDS011;65885;55.848;35.916;2023-04-01T09:44:00;3.10;;;1.30;;
76939;SDS011;65885;55.848;35.916;2023-04-01T09:46:39;1.65;;;1.30;;
76939;SDS011;65885;55.848;35.916;2023-04-01T09:52:19;1.30;;;1.00;;
76939;SDS011;65885;55.848;35.916;2023-04-01T09:54:58;1.48;;;1.00;;
76939;SDS011;65885;55.848;35.916;2023-04-01T09:57:48;1.25;;;0.90;;
76939;SDS011;65885;55.848;35.916;2023-04-01T10:00:39;1.25;;;1.00;;
76939;SDS011;65885;55.848;35.916;2023-04-01T10:09:59;2.17;;;1.13;;
76939;SDS011;65885;55.848;35.916;2023-04-01T10:22:17;2.13;;;1.25;;
76939;SDS011;65885;55.848;35.916;2023-04-01T10:25:12;2.05;;;1.20;;
76939;SDS011;65885;55.848;35.916;2023-04-01T10:27:59;1.73;;;1.25;;
76939;SDS011;65885;55.848;35.916;2023-04-01T10:30:58;2.97;;;1.63;;
76939;SDS011;65885;55.848;35.916;2023-04-01T10:34:05;2.40;;;1.40;;
76939;SDS011;65885;55.848;35.916;2023-04-01T10:55:36;2.22;;;1.60;;
76939;SDS011;65885;55.848;35.916;2023-04-01T10:58:28;1.40;;;0.93;;
76939;SDS011;65885;55.848;35.916;2023-04-01T11:10:33;3.08;;;1.50;;
76939;SDS011;65885;55.848;35.916;2023-04-01T11:13:34;1.77;;;1.00;;
76939;SDS011;65885;55.848;35.916;2023-04-01T11:26:15;2.35;;;0.90;;
76939;SDS011;65885;55.848;35.916;2023-04-01T11:29:03;3.38;;;1.10;;
76939;SDS011;65885;55.848;35.916;2023-04-01T11:31:47;1.15;;;1.00;;
76939;SDS011;65885;55.848;35.916;2023-04-01T11:34:37;1.88;;;1.10;;
76939;SDS011;65885;55.848;35.916;2023-04-01T11:37:24;2.63;;;1.48;;
76939;SDS011;65885;55.848;35.916;2023-04-01T11:40:07;1.67;;;1.20;;
76939;SDS011;65885;55.848;35.916;2023-04-01T11:42:49;1.80;;;1.30;;
76939;SDS011;65885;55.848;35.916;2023-04-01T11:45:30;1.55;;;1.10;;
76939;SDS011;65885;55.848;35.916;2023-04-01T11:48:07;2.13;;;1.30;;
76939;SDS011;65885;55.848;35.916;2023-04-01T11:50:49;2.40;;;1.70;;
76939;SDS011;65885;55.848;35.916;2023-04-01T11:53:31;1.50;;;1.23;;
76939;SDS011;65885;55.848;35.916;2023-04-01T11:56:19;2.15;;;1.40;;
76939;SDS011;65885;55.848;35.916;2023-04-01T11:59:05;1.33;;;1.20;;
76939;SDS011;65885;55.848;35.916;2023-04-01T12:01:56;3.25;;;1.50;;
76939;SDS011;65885;55.848;35.916;2023-04-01T12:07:40;3.97;;;2.50;;
76939;SDS011;65885;55.848;35.916;2023-04-01T12:10:18;4.22;;;2.50;;
76939;SDS011;65885;55.848;35.916;2023-04-01T12:12:49;4.35;;;2.70;;
76939;SDS011;65885;55.848;35.916;2023-04-01T12:15:28;2.60;;;2.00;;
76939;SDS011;65885;55.848;35.916;2023-04-01T12:18:05;4.13;;;2.10;;
76939;SDS011;65885;55.848;35.916;2023-04-01T12:20:47;3.35;;;2.22;;
76939;SDS011;65885;55.848;35.916;2023-04-01T12:23:22;3.75;;;2.15;;
76939;SDS011;65885;55.848;35.916;2023-04-01T12:29:10;3.13;;;2.17;;
76939;SDS011;65885;55.848;35.916;2023-04-01T12:32:06;3.28;;;2.03;;
76939;SDS011;65885;55.848;35.916;2023-04-01T12:34:47;2.83;;;2.10;;
76939;SDS011;65885;55.848;35.916;2023-04-01T12:37:28;3.00;;;2.25;;
76939;SDS011;65885;55.848;35.916;2023-04-01T12:40:03;3.78;;;2.28;;
76939;SDS011;65885;55.848;35.916;2023-04-01T12:42:50;4.07;;;2.42;;
76939;SDS011;65885;55.848;35.916;2023-04-01T12:45:28;4.00;;;2.55;;
76939;SDS011;65885;55.848;35.916;2023-04-01T12:51:10;4.65;;;2.80;;
76939;SDS011;65885;55.848;35.916;2023-04-01T12:57:19;4.07;;;2.60;;
76939;SDS011;65885;55.848;35.916;2023-04-01T13:00:03;4.95;;;2.90;;
76939;SDS011;65885;55.848;35.916;2023-04-01T13:02:42;4.05;;;2.95;;
76939;SDS011;65885;55.848;35.916;2023-04-01T13:08:28;5.68;;;3.00;;
76939;SDS011;65885;55.848;35.916;2023-04-01T13:11:08;5.93;;;3.00;;
76939;SDS011;65885;55.848;35.916;2023-04-01T13:16:33;6.10;;;3.38;;
76939;SDS011;65885;55.848;35.916;2023-04-01T13:19:06;4.07;;;3.40;;
76939;SDS011;65885;55.848;35.916;2023-04-01T13:21:42;5.47;;;3.28;;
76939;SDS011;65885;55.848;35.916;2023-04-01T13:24:24;4.95;;;3.50;;
76939;SDS011;65885;55.848;35.916;2023-04-01T13:26:59;5.82;;;3.17;;
76939;SDS011;65885;55.848;35.916;2023-04-01T13:29:34;5.95;;;3.40;;
76939;SDS011;65885;55.848;35.916;2023-04-01T13:32:15;5.32;;;3.08;;
76939;SDS011;65885;55.848;35.916;2023-04-01T13:34:55;4.90;;;3.05;;
76939;SDS011;65885;55.848;35.916;2023-04-01T13:37:39;5.72;;;3.67;;
76939;SDS011;65885;55.848;35.916;2023-04-01T13:43:15;6.43;;;3.90;;
76939;SDS011;65885;55.848;35.916;2023-04-01T13:45:50;6.75;;;3.97;;
76939;SDS011;65885;55.848;35.916;2023-04-01T13:48:50;5.63;;;4.10;;
76939;SDS011;65885;55.848;35.916;2023-04-01T13:51:48;8.27;;;4.53;;
76939;SDS011;65885;55.848;35.916;2023-04-01T13:57:31;6.50;;;3.83;;
76939;SDS011;65885;55.848;35.916;2023-04-01T14:00:19;5.70;;;4.18;;
76939;SDS011;65885;55.848;35.916;2023-04-01T14:03:01;6.80;;;4.22;;
76939;SDS011;65885;55.848;35.916;2023-04-01T14:05:47;9.10;;;4.75;;
76939;SDS011;65885;55.848;35.916;2023-04-01T14:08:26;6.63;;;4.10;;
76939;SDS011;65885;55.848;35.916;2023-04-01T14:11:09;7.30;;;4.85;;
76939;SDS011;65885;55.848;35.916;2023-04-01T14:13:46;6.90;;;4.35;;
76939;SDS011;65885;55.848;35.916;2023-04-01T14:16:27;6.95;;;4.35;;
76939;SDS011;65885;55.848;35.916;2023-04-01T14:19:26;6.10;;;4.45;;
76939;SDS011;65885;55.848;35.916;2023-04-01T14:22:11;8.30;;;4.30;;
76939;SDS011;65885;55.848;35.916;2023-04-01T14:25:01;7.65;;;4.35;;
76939;SDS011;65885;55.848;35.916;2023-04-01T14:27:48;7.00;;;4.55;;
76939;SDS011;65885;55.848;35.916;2023-04-01T14:30:38;6.97;;;4.20;;
76939;SDS011;65885;55.848;35.916;2023-04-01T14:33:19;7.35;;;4.65;;
76939;SDS011;65885;55.848;35.916;2023-04-01T14:36:09;7.45;;;4.80;;
76939;SDS011;65885;55.848;35.916;2023-04-01T14:38:55;6.10;;;4.13;;
76939;SDS011;65885;55.848;35.916;2023-04-01T14:41:38;6.35;;;4.13;;
76939;SDS011;65885;55.848;35.916;2023-04-01T14:44:18;7.68;;;4.75;;
76939;SDS011;65885;55.848;35.916;2023-04-01T14:49:52;5.35;;;4.05;;
76939;SDS011;65885;55.848;35.916;2023-04-01T14:52:30;6.38;;;3.97;;
76939;SDS011;65885;55.848;35.916;2023-04-01T14:57:29;7.07;;;4.03;;
76939;SDS011;65885;55.848;35.916;2023-04-01T15:00:00;6.75;;;3.92;;
76939;SDS011;65885;55.848;35.916;2023-04-01T15:02:41;9.65;;;4.28;;
76939;SDS011;65885;55.848;35.916;2023-04-01T15:05:23;6.75;;;4.28;;
76939;SDS011;65885;55.848;35.916;2023-04-01T15:13:59;6.25;;;4.18;;
76939;SDS011;65885;55.848;35.916;2023-04-01T15:16:39;7.40;;;4.20;;
76939;SDS011;65885;55.848;35.916;2023-04-01T15:19:17;6.40;;;4.10;;
76939;SDS011;65885;55.848;35.916;2023-04-01T15:21:55;7.55;;;4.68;;
76939;SDS011;65885;55.848;35.916;2023-04-01T15:24:35;8.32;;;4.78;;
76939;SDS011;65885;55.848;35.916;2023-04-01T15:27:13;7.25;;;4.55;;
76939;SDS011;65885;55.848;35.916;2023-04-01T15:29:58;6.82;;;4.63;;
76939;SDS011;65885;55.848;35.916;2023-04-01T15:32:42;7.20;;;4.35;;
76939;SDS011;65885;55.848;35.916;2023-04-01T15:35:28;9.13;;;4.85;;
76939;SDS011;65885;55.848;35.916;2023-04-01T15:38:06;6.53;;;4.40;;
76939;SDS011;65885;55.848;35.916;2023-04-01T15:40:46;6.20;;;4.50;;
76939;SDS011;65885;55.848;35.916;2023-04-01T15:43:24;6.93;;;4.75;;
76939;SDS011;65885;55.848;35.916;2023-04-01T15:45:58;6.47;;;4.45;;
76939;SDS011;65885;55.848;35.916;2023-04-01T15:48:45;7.35;;;4.53;;
76939;SDS011;65885;55.848;35.916;2023-04-01T15:54:27;6.32;;;4.30;;
76939;SDS011;65885;55.848;35.916;2023-04-01T15:57:09;5.97;;;3.83;;
76939;SDS011;65885;55.848;35.916;2023-04-01T15:59:54;6.78;;;4.07;;
76939;SDS011;65885;55.848;35.916;2023-04-01T16:02:33;9.05;;;4.93;;
76939;SDS011;65885;55.848;35.916;2023-04-01T16:05:10;7.22;;;4.10;;
76939;SDS011;65885;55.848;35.916;2023-04-01T16:10:49;6.03;;;4.10;;
76939;SDS011;65885;55.848;35.916;2023-04-01T16:13:38;5.60;;;3.92;;
76939;SDS011;65885;55.848;35.916;2023-04-01T16:16:18;6.35;;;4.30;;
76939;SDS011;65885;55.848;35.916;2023-04-01T16:19:05;5.78;;;4.30;;
76939;SDS011;65885;55.848;35.916;2023-04-01T16:21:45;6.47;;;3.92;;
76939;SDS011;65885;55.848;35.916;2023-04-01T16:24:22;6.78;;;4.13;;
76939;SDS011;65885;55.848;35.916;2023-04-01T16:26:58;7.20;;;4.50;;
76939;SDS011;65885;55.848;35.916;2023-04-01T16:29:33;6.65;;;3.95;;
76939;SDS011;65885;55.848;35.916;2023-04-01T16:32:14;6.00;;;3.70;;
76939;SDS011;65885;55.848;35.916;2023-04-01T16:34:54;7.47;;;4.10;;
76939;SDS011;65885;55.848;35.916;2023-04-01T16:37:32;7.95;;;5.10;;
76939;SDS011;65885;55.848;35.916;2023-04-01T16:40:11;6.53;;;5.10;;
76939;SDS011;65885;55.848;35.916;2023-04-01T16:42:48;8.05;;;5.13;;
76939;SDS011;65885;55.848;35.916;2023-04-01T16:45:28;8.55;;;5.15;;
76939;SDS011;65885;55.848;35.916;2023-04-01T16:48:05;7.43;;;4.55;;
76939;SDS011;65885;55.848;35.916;2023-04-01T16:50:49;8.25;;;4.90;;
76939;SDS011;65885;55.848;35.916;2023-04-01T16:53:25;10.38;;;6.13;;
76939;SDS011;65885;55.848;35.916;2023-04-01T16:56:07;8.95;;;4.75;;
76939;SDS011;65885;55.848;35.916;2023-04-01T16:58:40;8.55;;;5.47;;
76939;SDS011;65885;55.848;35.916;2023-04-01T17:01:16;6.90;;;5.15;;
76939;SDS011;65885;55.848;35.916;2023-04-01T17:03:50;6.97;;;4.10;;
76939;SDS011;65885;55.848;35.916;2023-04-01T17:06:27;7.18;;;4.35;;
76939;SDS011;65885;55.848;35.916;2023-04-01T17:09:17;9.38;;;4.72;;
76939;SDS011;65885;55.848;35.916;2023-04-01T17:11:56;6.63;;;4.45;;
76939;SDS011;65885;55.848;35.916;2023-04-01T17:14:32;7.10;;;4.40;;
76939;SDS011;65885;55.848;35.916;2023-04-01T17:20:14;7.57;;;4.57;;
76939;SDS011;65885;55.848;35.916;2023-04-01T17:22:58;6.85;;;3.88;;
76939;SDS011;65885;55.848;35.916;2023-04-01T17:28:27;7.38;;;4.72;;
76939;SDS011;65885;55.848;35.916;2023-04-01T17:31:06;7.55;;;4.68;;
76939;SDS011;65885;55.848;35.916;2023-04-01T17:33:47;8.60;;;4.47;;
76939;SDS011;65885;55.848;35.916;2023-04-01T17:36:31;8.07;;;4.30;;
76939;SDS011;65885;55.848;35.916;2023-04-01T17:39:13;9.02;;;4.90;;
76939;SDS011;65885;55.848;35.916;2023-04-01T17:41:57;8.20;;;5.03;;
76939;SDS011;65885;55.848;35.916;2023-04-01T17:44:37;6.88;;;4.30;;